createdAt,value
2023-01-26T00:01:46.663Z,1.00
2023-01-26T00:04:13.524Z,1.10
2023-01-26T00:06:40.365Z,1.00
2023-01-26T00:09:12.132Z,1.10
2023-01-26T00:11:39.501Z,1.10
2023-01-26T00:14:06.212Z,1.10
2023-01-26T00:16:34.301Z,1.10
2023-01-26T00:19:02.075Z,1.10
2023-01-26T00:21:28.924Z,1.10
2023-01-26T00:23:55.765Z,1.10
2023-01-26T00:26:25.851Z,1.10
2023-01-26T00:29:03.194Z,1.20
2023-01-26T00:31:30.126Z,1.10
2023-01-26T00:33:57.646Z,1.10
2023-01-26T00:36:24.855Z,1.10
2023-01-26T00:38:51.848Z,1.10
2023-01-26T00:41:37.890Z,1.00
2023-01-26T00:44:04.880Z,1.00
2023-01-26T00:46:31.715Z,1.10
2023-01-26T00:49:01.817Z,1.00
2023-01-26T00:51:28.664Z,1.10
2023-01-26T00:53:55.628Z,1.10
2023-01-26T00:56:22.582Z,1.00
2023-01-26T00:58:49.319Z,1.00
2023-01-26T01:01:16.177Z,1.00
2023-01-26T01:03:43.016Z,1.00
2023-01-26T01:06:09.896Z,1.00
2023-01-26T01:08:40.170Z,0.90
2023-01-26T01:11:10.860Z,1.00
2023-01-26T01:13:39.065Z,1.00
2023-01-26T01:16:18.337Z,1.10
2023-01-26T01:18:45.259Z,1.00
2023-01-26T01:21:17.654Z,1.00
2023-01-26T01:23:44.532Z,1.00
2023-01-26T01:26:12.368Z,1.00
2023-01-26T01:28:41.277Z,1.10
2023-01-26T01:31:13.042Z,1.10
2023-01-26T01:33:43.748Z,1.10
2023-01-26T01:36:16.838Z,1.10
2023-01-26T01:38:45.557Z,1.20
2023-01-26T01:41:22.688Z,1.10
2023-01-26T01:43:51.082Z,1.10
2023-01-26T01:46:35.581Z,1.20
2023-01-26T01:49:16.738Z,1.10
2023-01-26T01:52:03.891Z,1.10
2023-01-26T01:54:41.088Z,1.20
2023-01-26T01:57:27.765Z,1.20
2023-01-26T02:00:03.704Z,1.20
2023-01-26T02:05:33.334Z,1.10
2023-01-26T02:08:02.884Z,1.20
2023-01-26T02:10:31.290Z,1.10
2023-01-26T02:13:06.358Z,1.10
2023-01-26T02:15:33.285Z,1.10
2023-01-26T02:18:05.591Z,1.20
2023-01-26T02:20:52.763Z,1.10
2023-01-26T02:24:02.588Z,1.10
2023-01-26T02:26:35.228Z,1.10
2023-01-26T02:29:06.496Z,1.20
2023-01-26T02:31:38.242Z,1.20
2023-01-26T02:34:08.287Z,1.20
2023-01-26T02:36:35.477Z,1.20
2023-01-26T02:39:32.523Z,1.10
2023-01-26T02:42:21.157Z,1.20
2023-01-26T02:44:47.921Z,1.30
2023-01-26T02:47:19.833Z,1.30
2023-01-26T02:49:50.924Z,1.10
2023-01-26T02:52:23.537Z,1.10
2023-01-26T02:55:11.057Z,1.10
2023-01-26T02:57:38.096Z,1.10
2023-01-26T03:00:10.613Z,1.10
2023-01-26T03:02:40.073Z,1.10
2023-01-26T03:05:09.614Z,1.20
2023-01-26T03:07:36.474Z,1.10
2023-01-26T03:10:05.716Z,1.20
2023-01-26T03:12:32.550Z,1.20
2023-01-26T03:15:17.638Z,1.20
2023-01-26T03:17:44.953Z,1.20
2023-01-26T03:20:30.784Z,1.30
2023-01-26T03:23:16.226Z,1.30
2023-01-26T03:26:04.217Z,1.40
2023-01-26T03:28:32.033Z,1.40
2023-01-26T03:31:09.061Z,1.40
2023-01-26T03:33:38.612Z,1.40
2023-01-26T03:36:07.943Z,1.30
2023-01-26T03:38:35.071Z,1.30
2023-01-26T03:41:20.349Z,1.40
2023-01-26T03:44:08.246Z,1.40
2023-01-26T03:46:58.075Z,1.50
2023-01-26T03:49:43.344Z,1.40
2023-01-26T03:52:28.661Z,1.50
2023-01-26T03:55:14.934Z,1.50
2023-01-26T03:57:41.736Z,1.50
2023-01-26T04:00:09.937Z,1.50
2023-01-26T04:02:55.289Z,1.40
2023-01-26T04:05:40.552Z,1.40
2023-01-26T04:08:23.051Z,1.50
2023-01-26T04:10:59.212Z,1.40
2023-01-26T04:13:47.284Z,1.50
2023-01-26T04:16:32.682Z,1.40
2023-01-26T04:19:18.178Z,1.50
2023-01-26T04:21:47.246Z,1.40
2023-01-26T04:24:17.247Z,1.40
2023-01-26T04:26:44.571Z,1.40
2023-01-26T04:29:14.845Z,1.50
2023-01-26T04:31:45.069Z,1.50
2023-01-26T04:34:18.818Z,1.50
2023-01-26T04:36:45.603Z,1.50
2023-01-26T04:39:12.322Z,1.50
2023-01-26T04:41:45.973Z,1.50
2023-01-26T04:44:12.758Z,1.50
2023-01-26T04:46:39.479Z,1.60
2023-01-26T04:49:06.438Z,1.50
2023-01-26T04:51:33.408Z,1.50
2023-01-26T04:54:03.347Z,1.40
2023-01-26T04:56:34.957Z,1.50
2023-01-26T04:59:05.907Z,1.50
2023-01-26T05:01:33.435Z,1.50
2023-01-26T05:04:02.182Z,1.60
2023-01-26T05:06:29.815Z,1.60
2023-01-26T05:08:59.834Z,1.70
2023-01-26T05:11:26.739Z,1.70
2023-01-26T05:13:53.589Z,1.70
2023-01-26T05:16:20.433Z,1.70
2023-01-26T05:18:47.371Z,1.80
2023-01-26T05:21:14.210Z,1.90
2023-01-26T05:23:41.159Z,1.90
2023-01-26T05:26:08.141Z,1.90
2023-01-26T05:28:36.342Z,1.90
2023-01-26T05:31:03.529Z,1.90
2023-01-26T05:33:31.145Z,1.90
2023-01-26T05:36:07.077Z,1.90
2023-01-26T05:38:34.983Z,1.90
2023-01-26T05:41:01.944Z,1.90
2023-01-26T05:43:28.759Z,1.80
2023-01-26T05:45:55.830Z,1.80
2023-01-26T05:48:22.778Z,1.80
2023-01-26T05:50:49.550Z,1.80
2023-01-26T05:53:16.475Z,1.90
2023-01-26T05:55:43.773Z,1.80
2023-01-26T05:58:13.113Z,1.70
2023-01-26T06:00:39.938Z,1.70
2023-01-26T06:03:06.779Z,1.70
2023-01-26T06:05:41.730Z,1.70
2023-01-26T06:08:11.520Z,1.70
2023-01-26T06:10:38.249Z,1.70
2023-01-26T06:13:05.062Z,1.80
2023-01-26T06:15:31.940Z,1.80
2023-01-26T06:18:02.232Z,1.80
2023-01-26T06:20:28.994Z,1.80
2023-01-26T06:23:01.403Z,1.90
2023-01-26T06:25:28.143Z,1.90
2023-01-26T06:27:58.883Z,1.80
2023-01-26T06:30:28.935Z,1.90
2023-01-26T06:32:57.596Z,1.90
2023-01-26T06:35:26.426Z,1.90
2023-01-26T06:37:55.735Z,2.00
2023-01-26T06:40:22.587Z,2.00
2023-01-26T06:42:50.289Z,2.00
2023-01-26T06:45:20.439Z,2.00
2023-01-26T06:47:49.822Z,2.10
2023-01-26T06:50:20.815Z,2.00
2023-01-26T06:52:52.199Z,2.00
2023-01-26T06:55:37.248Z,2.00
2023-01-26T06:58:04.187Z,2.00
2023-01-26T07:00:31.227Z,2.00
2023-01-26T07:02:57.959Z,2.10
2023-01-26T07:05:24.664Z,2.00
2023-01-26T07:07:53.944Z,2.00
2023-01-26T07:10:20.967Z,2.00
2023-01-26T07:12:47.875Z,2.00
2023-01-26T07:15:14.706Z,2.10
2023-01-26T07:17:41.480Z,2.00
2023-01-26T07:20:09.673Z,2.00
2023-01-26T07:22:36.692Z,1.90
2023-01-26T07:25:03.672Z,2.00
2023-01-26T07:27:31.442Z,2.10
2023-01-26T07:29:58.256Z,2.10
2023-01-26T07:32:25.144Z,2.10
2023-01-26T07:34:51.901Z,2.20
2023-01-26T07:37:18.631Z,2.20
2023-01-26T07:39:45.377Z,2.20
2023-01-26T07:42:13.167Z,2.20
2023-01-26T07:44:39.930Z,2.30
2023-01-26T07:47:06.730Z,2.20
2023-01-26T07:49:33.697Z,2.30
2023-01-26T07:52:05.547Z,2.20
2023-01-26T07:54:35.521Z,2.30
2023-01-26T07:57:02.223Z,2.30
2023-01-26T07:59:29.031Z,2.40
2023-01-26T08:01:55.934Z,2.40
2023-01-26T08:04:22.735Z,2.40
2023-01-26T08:06:52.207Z,2.40
2023-01-26T08:09:19.365Z,2.40
2023-01-26T08:11:46.063Z,2.40
2023-01-26T08:14:12.829Z,2.40
2023-01-26T08:16:39.672Z,2.50
2023-01-26T08:19:06.407Z,2.50
2023-01-26T08:21:34.260Z,2.50
2023-01-26T08:24:03.278Z,2.50
2023-01-26T08:26:30.182Z,2.50
2023-01-26T08:28:57.116Z,2.60
2023-01-26T08:31:25.483Z,2.60
2023-01-26T08:33:54.358Z,2.60
2023-01-26T08:36:23.146Z,2.70
2023-01-26T08:38:51.737Z,2.80
2023-01-26T08:41:19.244Z,2.70
2023-01-26T08:43:46.171Z,2.80
2023-01-26T08:46:15.848Z,2.80
2023-01-26T08:48:42.884Z,2.80
2023-01-26T08:51:09.715Z,2.90
2023-01-26T08:53:37.600Z,3.00
2023-01-26T08:56:07.309Z,3.00
2023-01-26T08:58:35.100Z,3.10
2023-01-26T09:01:12.454Z,3.20
2023-01-26T09:03:39.611Z,3.30
2023-01-26T09:06:09.462Z,3.40
2023-01-26T09:08:36.945Z,3.50
2023-01-26T09:11:07.369Z,3.50
2023-01-26T09:13:34.247Z,3.60
2023-01-26T09:16:08.524Z,3.70
2023-01-26T09:18:35.258Z,3.80
2023-01-26T09:21:07.460Z,3.90
2023-01-26T09:23:35.947Z,4.00
2023-01-26T09:26:03.386Z,4.10
2023-01-26T09:28:30.591Z,4.20
2023-01-26T09:30:57.568Z,4.30
2023-01-26T09:33:25.437Z,4.40
2023-01-26T09:35:52.213Z,4.50
2023-01-26T09:38:19.056Z,4.60
2023-01-26T09:41:21.258Z,4.70
2023-01-26T09:43:56.700Z,4.90
2023-01-26T09:46:40.029Z,4.90
2023-01-26T09:49:16.864Z,4.90
2023-01-26T09:52:12.185Z,5.00
2023-01-26T09:54:49.088Z,5.10
2023-01-26T09:57:49.369Z,5.20
2023-01-26T10:00:41.229Z,5.20
2023-01-26T10:03:47.385Z,5.30
2023-01-26T10:06:31.683Z,5.40
2023-01-26T10:09:23.734Z,5.30
2023-01-26T10:11:58.053Z,5.40
2023-01-26T10:14:40.620Z,5.50
2023-01-26T10:17:20.186Z,5.50
2023-01-26T10:20:00.635Z,5.60
2023-01-26T10:22:54.147Z,5.60
2023-01-26T10:25:48.322Z,5.70
2023-01-26T10:28:47.709Z,5.70
2023-01-26T10:31:28.271Z,5.70
2023-01-26T10:34:18.306Z,5.70
2023-01-26T10:36:47.458Z,5.80
2023-01-26T10:39:18.324Z,5.80
2023-01-26T10:42:01.886Z,5.90
2023-01-26T10:44:38.212Z,5.90
2023-01-26T10:47:13.541Z,6.00
2023-01-26T10:49:41.172Z,6.00
2023-01-26T10:52:21.775Z,6.10
2023-01-26T10:55:09.068Z,6.20
2023-01-26T10:57:41.180Z,6.30
2023-01-26T11:00:29.117Z,6.30
2023-01-26T11:03:06.127Z,6.40
2023-01-26T11:05:33.483Z,6.40
2023-01-26T11:08:02.780Z,6.40
2023-01-26T11:10:34.382Z,6.50
2023-01-26T11:13:24.869Z,6.50
2023-01-26T11:16:24.962Z,6.60
2023-01-26T11:19:12.260Z,6.80
2023-01-26T11:21:53.848Z,6.90
2023-01-26T11:24:34.270Z,7.00
2023-01-26T11:27:31.312Z,7.00
2023-01-26T11:30:47.994Z,7.00
2023-01-26T11:34:02.771Z,7.00
2023-01-26T11:37:00.413Z,7.20
2023-01-26T11:39:58.955Z,7.10
2023-01-26T11:42:51.633Z,7.20
2023-01-26T11:45:51.012Z,7.10
2023-01-26T11:48:42.805Z,7.10
2023-01-26T11:51:35.914Z,7.30
2023-01-26T11:54:29.799Z,7.40
2023-01-26T11:57:34.570Z,7.40
2023-01-26T12:00:28.672Z,7.50
2023-01-26T12:03:04.616Z,7.50
2023-01-26T12:06:01.436Z,7.50
2023-01-26T12:08:39.761Z,7.50
2023-01-26T12:11:33.673Z,7.50
2023-01-26T12:14:12.343Z,7.40
2023-01-26T12:17:18.002Z,7.40
2023-01-26T12:20:21.153Z,7.30
2023-01-26T12:23:03.506Z,7.30
2023-01-26T12:25:59.917Z,7.30
2023-01-26T12:29:09.882Z,7.40
2023-01-26T12:31:59.017Z,7.60
2023-01-26T12:34:33.746Z,7.60
2023-01-26T12:37:18.657Z,7.70
2023-01-26T12:40:09.215Z,7.90
2023-01-26T12:43:16.383Z,7.90
2023-01-26T12:45:47.733Z,8.00
2023-01-26T12:48:52.953Z,7.90
2023-01-26T12:51:50.541Z,7.80
2023-01-26T12:54:43.746Z,7.90
2023-01-26T12:57:20.091Z,7.90
2023-01-26T12:59:49.185Z,7.80
2023-01-26T13:02:16.066Z,7.90
2023-01-26T13:04:47.952Z,8.00
2023-01-26T13:07:37.646Z,8.00
2023-01-26T13:10:19.536Z,8.20
2023-01-26T13:12:53.701Z,8.20
2023-01-26T13:15:24.749Z,8.20
2023-01-26T13:17:55.621Z,8.20
2023-01-26T13:20:29.333Z,8.20
2023-01-26T13:22:56.796Z,8.20
2023-01-26T13:25:33.392Z,8.10
2023-01-26T13:28:03.788Z,8.10
2023-01-26T13:30:47.538Z,8.00
2023-01-26T13:33:26.709Z,8.10
2023-01-26T13:35:55.493Z,7.90
2023-01-26T13:38:35.347Z,7.90
2023-01-26T13:41:17.510Z,7.90
2023-01-26T13:43:52.591Z,7.90
2023-01-26T13:47:12.603Z,7.90
2023-01-26T13:49:42.589Z,7.80
2023-01-26T13:52:29.596Z,7.80
2023-01-26T13:55:01.935Z,7.80
2023-01-26T13:57:30.551Z,7.80
2023-01-26T14:00:01.485Z,7.80
2023-01-26T14:02:34.686Z,7.90
2023-01-26T14:05:03.271Z,7.80
2023-01-26T14:07:42.950Z,7.80
2023-01-26T14:10:22.336Z,7.80
2023-01-26T14:12:58.074Z,7.90
2023-01-26T14:15:30.011Z,7.70
2023-01-26T14:17:58.583Z,7.70
2023-01-26T14:20:34.345Z,7.70
2023-01-26T14:23:18.791Z,7.80
2023-01-26T14:26:01.698Z,7.70
2023-01-26T14:28:40.738Z,7.80
2023-01-26T14:31:21.622Z,7.70
2023-01-26T14:33:53.266Z,7.70
2023-01-26T14:36:21.669Z,7.70
2023-01-26T14:38:51.812Z,7.70
2023-01-26T14:41:28.500Z,7.70
2023-01-26T14:43:59.902Z,7.60
2023-01-26T14:46:29.779Z,7.60
2023-01-26T14:49:23.480Z,7.60
2023-01-26T14:51:57.722Z,7.50
2023-01-26T14:54:39.341Z,7.50
2023-01-26T14:57:09.521Z,7.50
2023-01-26T14:59:41.191Z,7.50
2023-01-26T15:02:16.881Z,7.50
2023-01-26T15:04:53.169Z,7.50
2023-01-26T15:07:41.272Z,7.50
2023-01-26T15:10:43.545Z,7.40
2023-01-26T15:13:10.349Z,7.40
2023-01-26T15:15:51.087Z,7.40
2023-01-26T15:18:20.899Z,7.40
2023-01-26T15:21:00.121Z,7.40
2023-01-26T15:23:34.658Z,7.40
2023-01-26T15:26:29.173Z,7.40
2023-01-26T15:29:00.710Z,7.30
2023-01-26T15:31:37.147Z,7.40
2023-01-26T15:34:07.223Z,7.30
2023-01-26T15:36:47.884Z,7.30
2023-01-26T15:39:17.970Z,7.30
2023-01-26T15:42:15.636Z,7.20
2023-01-26T15:44:42.761Z,7.20
2023-01-26T15:47:13.845Z,7.10
2023-01-26T15:49:42.037Z,7.10
2023-01-26T15:52:17.610Z,7.00
2023-01-26T15:54:45.285Z,7.00
2023-01-26T15:57:12.977Z,7.00
2023-01-26T15:59:40.663Z,7.00
2023-01-26T16:02:20.300Z,7.00
2023-01-26T16:04:47.822Z,7.00
2023-01-26T16:07:18.038Z,7.00
2023-01-26T16:09:45.370Z,7.00
2023-01-26T16:12:33.460Z,7.00
2023-01-26T16:15:00.509Z,6.90
2023-01-26T16:17:27.351Z,6.90
2023-01-26T16:19:54.243Z,6.80
2023-01-26T16:22:21.250Z,6.90
2023-01-26T16:24:48.018Z,6.80
2023-01-26T16:27:14.792Z,6.80
2023-01-26T16:29:41.529Z,6.70
2023-01-26T16:32:37.606Z,6.80
2023-01-26T16:35:16.130Z,6.80
2023-01-26T16:37:43.649Z,6.80
2023-01-26T16:40:14.101Z,6.70
2023-01-26T16:42:47.730Z,6.90
2023-01-26T16:45:20.629Z,6.80
2023-01-26T16:47:57.344Z,6.80
2023-01-26T16:50:25.809Z,6.80
2023-01-26T16:52:53.260Z,6.80
2023-01-26T16:55:20.191Z,6.80
2023-01-26T16:57:49.727Z,6.80
2023-01-26T17:00:20.606Z,6.80
2023-01-26T17:02:52.501Z,6.80
2023-01-26T17:05:21.723Z,6.80
2023-01-26T17:07:50.724Z,6.80
2023-01-26T17:10:18.724Z,6.70
2023-01-26T17:12:45.551Z,6.70
2023-01-26T17:15:13.780Z,6.70
2023-01-26T17:17:49.591Z,6.70
2023-01-26T17:20:20.207Z,6.70
2023-01-26T17:22:48.618Z,6.70
2023-01-26T17:25:18.266Z,6.70
2023-01-26T17:27:46.586Z,6.70
2023-01-26T17:30:13.770Z,6.70
2023-01-26T17:32:42.654Z,6.70
2023-01-26T17:35:10.334Z,6.70
2023-01-26T17:37:38.071Z,6.70
2023-01-26T17:40:08.041Z,6.70
2023-01-26T17:42:36.142Z,6.70
2023-01-26T17:45:04.292Z,6.70
2023-01-26T17:47:34.673Z,6.70
2023-01-26T17:50:02.016Z,6.70
2023-01-26T17:52:28.870Z,6.70
2023-01-26T17:54:55.659Z,6.70
2023-01-26T17:57:25.430Z,6.70
2023-01-26T17:59:52.382Z,6.70
2023-01-26T18:02:19.154Z,6.70
2023-01-26T18:04:45.938Z,6.70
2023-01-26T18:07:12.726Z,6.70
2023-01-26T18:09:39.469Z,6.70
2023-01-26T18:12:09.660Z,6.70
2023-01-26T18:14:36.467Z,6.70
2023-01-26T18:17:03.299Z,6.70
2023-01-26T18:19:30.108Z,6.70
2023-01-26T18:21:57.097Z,6.60
2023-01-26T18:24:23.873Z,6.60
2023-01-26T18:26:50.721Z,6.60
2023-01-26T18:29:17.511Z,6.60
2023-01-26T18:31:44.362Z,6.60
2023-01-26T18:34:11.781Z,6.60
2023-01-26T18:36:38.696Z,6.60
2023-01-26T18:39:11.390Z,6.60
2023-01-26T18:41:40.893Z,6.50
2023-01-26T18:44:11.310Z,6.60
2023-01-26T18:46:38.599Z,6.60
2023-01-26T18:49:05.567Z,6.60
2023-01-26T18:51:35.898Z,6.60
2023-01-26T18:54:04.817Z,6.60
2023-01-26T18:56:32.508Z,6.60
2023-01-26T18:58:59.847Z,6.60
2023-01-26T19:01:26.860Z,6.50
2023-01-26T19:03:55.578Z,6.50
2023-01-26T19:06:25.367Z,6.50
2023-01-26T19:09:00.584Z,6.60
2023-01-26T19:11:33.377Z,6.60
2023-01-26T19:14:01.931Z,6.60
2023-01-26T19:16:30.147Z,6.60
2023-01-26T19:18:57.557Z,6.60
2023-01-26T19:21:28.788Z,6.50
2023-01-26T19:23:58.655Z,6.50
2023-01-26T19:26:30.944Z,6.50
2023-01-26T19:28:59.110Z,6.50
2023-01-26T19:31:27.697Z,6.50
2023-01-26T19:34:01.592Z,6.50
2023-01-26T19:36:32.209Z,6.50
2023-01-26T19:38:59.364Z,6.50
2023-01-26T19:41:26.527Z,6.50
2023-01-26T19:43:53.424Z,6.40
2023-01-26T19:46:21.425Z,6.50
2023-01-26T19:48:49.244Z,6.50
2023-01-26T19:51:24.077Z,6.50
2023-01-26T19:53:56.224Z,6.50
2023-01-26T19:56:29.986Z,6.40
2023-01-26T19:59:04.268Z,6.40
2023-01-26T20:01:32.611Z,6.40
2023-01-26T20:04:04.225Z,6.40
2023-01-26T20:06:34.974Z,6.30
2023-01-26T20:09:07.535Z,6.40
2023-01-26T20:11:34.997Z,6.40
2023-01-26T20:14:11.018Z,6.30
2023-01-26T20:16:38.032Z,6.30
2023-01-26T20:19:05.166Z,6.30
2023-01-26T20:21:33.592Z,6.20
2023-01-26T20:24:05.542Z,6.20
2023-01-26T20:26:34.956Z,6.20
2023-01-26T20:29:01.876Z,6.20
2023-01-26T20:31:31.102Z,6.20
2023-01-26T20:33:58.463Z,6.20
2023-01-26T20:36:28.476Z,6.10
2023-01-26T20:39:02.670Z,6.10
2023-01-26T20:41:35.950Z,6.10
2023-01-26T20:44:06.238Z,6.10
2023-01-26T20:46:41.031Z,6.10
2023-01-26T20:49:15.176Z,6.00
2023-01-26T20:51:46.152Z,6.00
2023-01-26T20:54:16.414Z,6.00
2023-01-26T20:56:45.720Z,6.00
2023-01-26T20:59:12.910Z,6.00
2023-01-26T21:01:40.890Z,5.90
2023-01-26T21:04:07.841Z,5.90
2023-01-26T21:06:36.108Z,5.90
2023-01-26T21:09:11.612Z,5.90
2023-01-26T21:11:40.359Z,5.90
2023-01-26T21:14:13.491Z,5.90
2023-01-26T21:16:43.449Z,5.80
2023-01-26T21:19:13.407Z,5.80
2023-01-26T21:21:44.073Z,5.80
2023-01-26T21:24:11.375Z,5.70
2023-01-26T21:26:38.678Z,5.70
2023-01-26T21:29:07.534Z,5.70
2023-01-26T21:31:34.576Z,5.70
2023-01-26T21:34:01.718Z,5.60
2023-01-26T21:36:31.729Z,5.60
2023-01-26T21:39:00.767Z,5.60
2023-01-26T21:41:55.195Z,5.60
2023-01-26T21:44:24.744Z,5.50
2023-01-26T21:46:59.334Z,5.50
2023-01-26T21:49:28.394Z,5.50
2023-01-26T21:52:17.336Z,5.50
2023-01-26T21:54:44.109Z,5.50
2023-01-26T21:57:30.227Z,5.50
2023-01-26T21:59:57.194Z,5.40
2023-01-26T22:02:24.177Z,5.40
2023-01-26T22:04:51.606Z,5.50
2023-01-26T22:07:18.732Z,5.40
2023-01-26T22:09:45.710Z,5.50
2023-01-26T22:12:12.464Z,5.50
2023-01-26T22:14:39.672Z,5.50
2023-01-26T22:17:09.504Z,5.50
2023-01-26T22:19:36.225Z,5.50
2023-01-26T22:22:03.417Z,5.60
2023-01-26T22:24:30.248Z,5.60
2023-01-26T22:26:57.017Z,5.70
2023-01-26T22:29:23.852Z,5.70
2023-01-26T22:31:53.763Z,5.60
2023-01-26T22:34:23.880Z,5.70
2023-01-26T22:36:50.854Z,5.60
2023-01-26T22:39:19.760Z,5.70
2023-01-26T22:41:46.530Z,5.60
2023-01-26T22:44:13.321Z,5.70
2023-01-26T22:46:40.156Z,5.70
2023-01-26T22:49:06.907Z,5.70
2023-01-26T22:51:37.117Z,5.70
2023-01-26T22:54:07.189Z,5.70
2023-01-26T22:56:34.056Z,5.70
2023-01-26T22:59:01.010Z,5.70
2023-01-26T23:01:33.228Z,5.70
2023-01-26T23:04:03.341Z,5.60
2023-01-26T23:06:30.397Z,5.60
2023-01-26T23:09:02.151Z,5.60
2023-01-26T23:11:30.458Z,5.60
2023-01-26T23:14:00.020Z,5.60
2023-01-26T23:16:27.919Z,5.60
2023-01-26T23:18:59.650Z,5.60
2023-01-26T23:21:28.358Z,5.60
2023-01-26T23:23:55.751Z,5.70
2023-01-26T23:26:25.761Z,5.70
2023-01-26T23:28:52.773Z,5.80
2023-01-26T23:31:20.394Z,5.70
2023-01-26T23:33:47.925Z,5.70
2023-01-26T23:36:15.706Z,5.70
2023-01-26T23:38:44.167Z,5.70
2023-01-26T23:41:14.418Z,5.70
2023-01-26T23:43:44.485Z,5.80
2023-01-26T23:46:12.513Z,5.80
2023-01-26T23:48:39.582Z,5.80
2023-01-26T23:51:10.739Z,5.80
2023-01-26T23:53:38.542Z,5.80
2023-01-26T23:56:15.044Z,5.70
2023-01-26T23:58:45.828Z,5.70
